Time;durP1;ratioP1;P1;durP2;ratioP2;P2;SDS_P1;SDS_P2;PMS_P1;PMS_P2;Temp;Humidity;BMP_temperature;BMP_pressure;BME280_temperature;BME280_humidity;BME280_pressure;Samples;Min_cycle;Max_cycle;Signal;HPM_P1;HPM_P2
2021/12/26 00:02:08;;;;;;;0.70;0.70;;;;;;;;;;5022098;28;20502;-70
2021/12/26 00:04:34;;;;;;;0.40;0.40;;;;;;;;;;5016740;28;20429;-69
2021/12/26 00:07:01;;;;;;;0.40;0.40;;;;;;;;;;5031102;28;20235;-68
2021/12/26 00:09:28;;;;;;;0.40;0.40;;;;;;;;;;5025350;28;20202;-69
2021/12/26 00:11:54;;;;;;;0.40;0.40;;;;;;;;;;5015761;28;20208;-68
2021/12/26 00:14:21;;;;;;;0.40;0.40;;;;;;;;;;5023228;28;20248;-68
2021/12/26 00:16:47;;;;;;;0.40;0.40;;;;;;;;;;5033547;28;20490;-68
2021/12/26 00:19:13;;;;;;;0.40;0.40;;;;;;;;;;5032284;28;20235;-68
2021/12/26 00:21:40;;;;;;;0.40;0.40;;;;;;;;;;5017908;28;20209;-68
2021/12/26 00:24:06;;;;;;;0.40;0.40;;;;;;;;;;5015953;28;20261;-68
2021/12/26 00:26:35;;;;;;;0.77;0.77;;;;;;;;;;5019841;28;20222;-68
2021/12/26 00:29:01;;;;;;;0.40;0.40;;;;;;;;;;5020073;28;20209;-69
2021/12/26 00:31:28;;;;;;;0.40;0.40;;;;;;;;;;5011066;28;20220;-68
2021/12/26 00:33:54;;;;;;;0.40;0.40;;;;;;;;;;5016463;28;20209;-68
2021/12/26 00:36:20;;;;;;;3.60;3.40;;;;;;;;;;5010682;28;20202;-69
2021/12/26 00:38:47;;;;;;;0.40;0.40;;;;;;;;;;5005453;28;20548;-71
2021/12/26 00:41:13;;;;;;;0.40;0.40;;;;;;;;;;5006298;28;20526;-69
2021/12/26 00:43:41;;;;;;;0.40;0.40;;;;;;;;;;5005751;28;20258;-69
2021/12/26 00:46:07;;;;;;;0.40;0.40;;;;;;;;;;5005655;28;20240;-69
2021/12/26 00:48:33;;;;;;;0.40;0.40;;;;;;;;;;5005561;28;20439;-68
2021/12/26 00:51:00;;;;;;;0.40;0.40;;;;;;;;;;5005111;28;20237;-69
2021/12/26 00:53:28;;;;;;;0.40;0.40;;;;;;;;;;5004226;28;20208;-69
2021/12/26 00:55:56;;;;;;;0.40;0.40;;;;;;;;;;5005001;28;20247;-68
2021/12/26 00:58:22;;;;;;;0.40;0.40;;;;;;;;;;5005412;28;20208;-69
2021/12/26 01:00:53;;;;;;;0.60;0.60;;;;;;;;;;5005300;28;20211;-69
2021/12/26 01:03:20;;;;;;;0.40;0.40;;;;;;;;;;5009559;28;20206;-69
2021/12/26 01:05:47;;;;;;;0.40;0.40;;;;;;;;;;5044241;28;20225;-69
2021/12/26 01:08:14;;;;;;;0.40;0.40;;;;;;;;;;5044385;28;20209;-69
2021/12/26 01:10:44;;;;;;;0.50;0.50;;;;;;;;;;5044647;28;20205;-69
2021/12/26 01:13:16;;;;;;;0.40;0.40;;;;;;;;;;5044624;28;20205;-69
2021/12/26 01:15:42;;;;;;;0.40;0.40;;;;;;;;;;5044261;28;20286;-69
2021/12/26 01:18:10;;;;;;;0.40;0.40;;;;;;;;;;5044662;28;20243;-70
2021/12/26 01:20:43;;;;;;;0.30;0.30;;;;;;;;;;5044476;28;20369;-69
2021/12/26 01:23:10;;;;;;;0.40;0.40;;;;;;;;;;5044451;28;20218;-69
2021/12/26 01:25:36;;;;;;;0.40;0.40;;;;;;;;;;5043998;28;20514;-69
2021/12/26 01:28:03;;;;;;;0.40;0.40;;;;;;;;;;5044322;28;20251;-69
2021/12/26 01:30:30;;;;;;;0.40;0.40;;;;;;;;;;5044228;28;20259;-69
2021/12/26 01:32:56;;;;;;;0.40;0.40;;;;;;;;;;5044169;28;20264;-69
2021/12/26 01:35:26;;;;;;;0.97;0.97;;;;;;;;;;5035723;28;20258;-68
2021/12/26 01:37:53;;;;;;;0.40;0.40;;;;;;;;;;5024280;28;20191;-68
2021/12/26 01:40:19;;;;;;;0.77;0.77;;;;;;;;;;5024226;28;20281;-68
2021/12/26 01:42:45;;;;;;;0.50;0.50;;;;;;;;;;5023836;28;20229;-68
2021/12/26 01:45:11;;;;;;;6.33;6.03;;;;;;;;;;5023962;28;20206;-68
2021/12/26 01:47:38;;;;;;;0.40;0.40;;;;;;;;;;5023829;28;20229;-68
2021/12/26 01:50:05;;;;;;;1.00;1.00;;;;;;;;;;5023809;28;20253;-68
2021/12/26 01:52:32;;;;;;;0.40;0.40;;;;;;;;;;5012977;28;20204;-68
2021/12/26 01:55:12;;;;;;;0.40;0.40;;;;;;;;;;5003966;28;20565;-69
2021/12/26 01:57:38;;;;;;;1.27;1.27;;;;;;;;;;5004328;28;20234;-68
2021/12/26 02:00:05;;;;;;;0.80;0.80;;;;;;;;;;5003923;28;20255;-69
2021/12/26 02:02:31;;;;;;;0.40;0.40;;;;;;;;;;5004242;28;20206;-69
2021/12/26 02:04:57;;;;;;;0.40;0.40;;;;;;;;;;5003759;28;20211;-69
2021/12/26 02:07:24;;;;;;;0.43;0.43;;;;;;;;;;5003635;28;20227;-69
2021/12/26 02:09:51;;;;;;;0.40;0.40;;;;;;;;;;5003838;28;20206;-69
2021/12/26 02:12:17;;;;;;;0.40;0.40;;;;;;;;;;5003752;28;20208;-69
2021/12/26 02:14:44;;;;;;;0.40;0.40;;;;;;;;;;5004018;28;20254;-69
2021/12/26 02:17:10;;;;;;;0.40;0.40;;;;;;;;;;5003637;28;20222;-69
2021/12/26 02:19:36;;;;;;;0.40;0.40;;;;;;;;;;5003654;28;20207;-68
2021/12/26 02:22:10;;;;;;;0.50;0.50;;;;;;;;;;5003680;28;20206;-68
2021/12/26 02:25:07;;;;;;;0.40;0.40;;;;;;;;;;5003549;28;20514;-68
2021/12/26 02:27:32;;;;;;;0.40;0.40;;;;;;;;;;5003354;28;20222;-69
2021/12/26 02:29:59;;;;;;;0.50;0.50;;;;;;;;;;5003829;28;20202;-70
2021/12/26 02:32:25;;;;;;;0.40;0.40;;;;;;;;;;5003374;28;20393;-68
2021/12/26 02:34:51;;;;;;;0.40;0.40;;;;;;;;;;5003573;28;20207;-68
2021/12/26 02:37:19;;;;;;;0.40;0.40;;;;;;;;;;5003737;28;20204;-68
2021/12/26 02:39:45;;;;;;;0.40;0.40;;;;;;;;;;5003584;28;20207;-68
2021/12/26 02:42:12;;;;;;;0.40;0.40;;;;;;;;;;5003643;28;20206;-67
2021/12/26 02:44:38;;;;;;;0.40;0.40;;;;;;;;;;5003663;28;20220;-69
2021/12/26 02:47:04;;;;;;;0.40;0.40;;;;;;;;;;5003549;28;20289;-68
2021/12/26 02:49:31;;;;;;;0.87;0.87;;;;;;;;;;5003397;28;20198;-68
2021/12/26 02:51:57;;;;;;;0.40;0.40;;;;;;;;;;5003087;28;20235;-67
2021/12/26 02:54:25;;;;;;;0.40;0.40;;;;;;;;;;5003506;28;20219;-68
2021/12/26 02:56:51;;;;;;;0.40;0.40;;;;;;;;;;5003313;28;20221;-69
2021/12/26 02:59:18;;;;;;;0.40;0.40;;;;;;;;;;5003551;28;20264;-68
2021/12/26 03:01:44;;;;;;;0.40;0.40;;;;;;;;;;5003086;28;20258;-68
2021/12/26 03:04:10;;;;;;;0.40;0.40;;;;;;;;;;5003099;28;20208;-68
2021/12/26 03:06:38;;;;;;;0.40;0.40;;;;;;;;;;5003375;28;20498;-68
2021/12/26 03:09:05;;;;;;;0.40;0.40;;;;;;;;;;5003213;28;20231;-69
2021/12/26 03:11:33;;;;;;;0.40;0.40;;;;;;;;;;5003396;28;20254;-69
2021/12/26 03:14:00;;;;;;;0.40;0.40;;;;;;;;;;5003781;28;20514;-69
2021/12/26 03:16:26;;;;;;;0.40;0.40;;;;;;;;;;5022715;28;20213;-68
2021/12/26 03:18:56;;;;;;;0.40;0.40;;;;;;;;;;5026701;28;20429;-68
2021/12/26 03:21:22;;;;;;;0.40;0.40;;;;;;;;;;5026804;28;20210;-68
2021/12/26 03:23:48;;;;;;;0.40;0.40;;;;;;;;;;5026809;28;20275;-69
2021/12/26 03:26:14;;;;;;;0.40;0.40;;;;;;;;;;5026708;28;20560;-69
2021/12/26 03:28:42;;;;;;;0.40;0.40;;;;;;;;;;5026730;28;20207;-69
2021/12/26 03:31:08;;;;;;;0.43;0.43;;;;;;;;;;5026707;28;20210;-69
2021/12/26 03:33:35;;;;;;;0.40;0.40;;;;;;;;;;5026598;28;20205;-69
2021/12/26 03:36:01;;;;;;;3.73;3.60;;;;;;;;;;5026652;28;20207;-68
2021/12/26 03:38:29;;;;;;;0.40;0.40;;;;;;;;;;5026166;28;20225;-68
2021/12/26 03:40:55;;;;;;;0.60;0.60;;;;;;;;;;5026458;28;20253;-68
2021/12/26 03:43:22;;;;;;;0.40;0.40;;;;;;;;;;5026115;28;20207;-68
2021/12/26 03:45:50;;;;;;;0.40;0.40;;;;;;;;;;5026183;28;20206;-68
2021/12/26 03:48:17;;;;;;;0.60;0.60;;;;;;;;;;5025786;28;20231;-68
2021/12/26 03:50:44;;;;;;;0.40;0.40;;;;;;;;;;5025880;28;20233;-68
2021/12/26 03:53:11;;;;;;;0.83;0.83;;;;;;;;;;5026279;28;20207;-68
2021/12/26 03:55:37;;;;;;;0.40;0.40;;;;;;;;;;5026387;28;20206;-69
2021/12/26 03:58:04;;;;;;;0.40;0.40;;;;;;;;;;5026374;28;20204;-68
2021/12/26 04:00:31;;;;;;;0.47;0.47;;;;;;;;;;5026010;28;20213;-68
2021/12/26 04:02:59;;;;;;;0.40;0.40;;;;;;;;;;5025880;28;20206;-70
2021/12/26 04:05:25;;;;;;;0.50;0.50;;;;;;;;;;5045663;28;20335;-68
2021/12/26 04:07:52;;;;;;;0.40;0.40;;;;;;;;;;5045793;28;20453;-68
2021/12/26 04:10:19;;;;;;;0.50;0.50;;;;;;;;;;5045462;28;20207;-68
2021/12/26 04:12:48;;;;;;;0.40;0.40;;;;;;;;;;5045757;28;20205;-68
2021/12/26 04:15:15;;;;;;;0.40;0.40;;;;;;;;;;5045430;28;20205;-69
2021/12/26 04:17:41;;;;;;;0.40;0.40;;;;;;;;;;5045577;28;20204;-68
2021/12/26 04:20:10;;;;;;;0.40;0.40;;;;;;;;;;5045200;28;20567;-68
2021/12/26 04:22:36;;;;;;;0.40;0.40;;;;;;;;;;5045199;28;20201;-68
2021/12/26 04:25:03;;;;;;;0.40;0.40;;;;;;;;;;5045519;28;20206;-69
2021/12/26 04:27:29;;;;;;;0.40;0.40;;;;;;;;;;5045436;28;20263;-70
2021/12/26 04:29:56;;;;;;;0.40;0.40;;;;;;;;;;5045332;28;20205;-69
2021/12/26 04:32:22;;;;;;;0.40;0.40;;;;;;;;;;5045497;28;20210;-69
2021/12/26 04:34:48;;;;;;;0.40;0.40;;;;;;;;;;5045212;28;20214;-68
2021/12/26 04:37:16;;;;;;;0.40;0.40;;;;;;;;;;5045177;28;20265;-68
2021/12/26 04:39:42;;;;;;;0.50;0.50;;;;;;;;;;5045291;28;20208;-68
2021/12/26 04:42:09;;;;;;;0.40;0.40;;;;;;;;;;5044838;28;20221;-68
2021/12/26 04:44:35;;;;;;;0.40;0.40;;;;;;;;;;5045202;28;20214;-68
2021/12/26 04:47:02;;;;;;;0.40;0.40;;;;;;;;;;5044731;28;20393;-68
2021/12/26 04:49:28;;;;;;;0.40;0.40;;;;;;;;;;5045191;28;20254;-68
2021/12/26 04:51:54;;;;;;;0.40;0.40;;;;;;;;;;5044789;28;20599;-68
2021/12/26 04:54:22;;;;;;;0.67;0.67;;;;;;;;;;5036974;28;20431;-68
2021/12/26 04:56:48;;;;;;;0.40;0.40;;;;;;;;;;5024791;28;20229;-68
2021/12/26 04:59:14;;;;;;;0.40;0.40;;;;;;;;;;5025086;28;20205;-68
2021/12/26 05:01:41;;;;;;;0.40;0.40;;;;;;;;;;5024177;28;20201;-68
2021/12/26 05:04:07;;;;;;;0.40;0.40;;;;;;;;;;5024790;28;20268;-69
2021/12/26 05:06:34;;;;;;;0.40;0.40;;;;;;;;;;5024889;28;20205;-69
2021/12/26 05:09:00;;;;;;;0.47;0.47;;;;;;;;;;5024585;28;20229;-68
2021/12/26 05:11:28;;;;;;;0.40;0.40;;;;;;;;;;5024903;28;20210;-68
2021/12/26 05:13:54;;;;;;;0.40;0.40;;;;;;;;;;5024326;28;20207;-69
2021/12/26 05:16:21;;;;;;;0.50;0.50;;;;;;;;;;5024893;28;20244;-68
2021/12/26 05:18:47;;;;;;;0.40;0.40;;;;;;;;;;5024736;28;20201;-68
2021/12/26 05:21:13;;;;;;;0.43;0.43;;;;;;;;;;5024632;28;20426;-68
2021/12/26 05:23:39;;;;;;;0.40;0.40;;;;;;;;;;5024423;28;20211;-68
2021/12/26 05:26:05;;;;;;;0.50;0.50;;;;;;;;;;5024336;28;20243;-68
2021/12/26 05:28:34;;;;;;;0.50;0.50;;;;;;;;;;5024317;28;20222;-68
2021/12/26 05:31:00;;;;;;;0.40;0.40;;;;;;;;;;5024572;28;20209;-68
2021/12/26 05:33:28;;;;;;;0.43;0.43;;;;;;;;;;5024528;28;20205;-67
2021/12/26 05:35:54;;;;;;;0.50;0.50;;;;;;;;;;5024578;28;20534;-68
2021/12/26 05:38:20;;;;;;;0.40;0.40;;;;;;;;;;5024121;28;20208;-68
2021/12/26 05:40:46;;;;;;;0.40;0.40;;;;;;;;;;5023816;28;20209;-67
2021/12/26 05:43:13;;;;;;;0.50;0.50;;;;;;;;;;5018635;28;20218;-68
2021/12/26 05:45:40;;;;;;;0.40;0.40;;;;;;;;;;5016626;28;20206;-68
2021/12/26 05:48:06;;;;;;;0.40;0.40;;;;;;;;;;5017717;28;20275;-68
2021/12/26 05:50:33;;;;;;;0.47;0.47;;;;;;;;;;5009349;28;20292;-68
2021/12/26 05:52:59;;;;;;;0.40;0.40;;;;;;;;;;5011689;28;20208;-68
2021/12/26 05:55:25;;;;;;;0.47;0.47;;;;;;;;;;5027270;28;20224;-69
2021/12/26 05:57:52;;;;;;;0.40;0.40;;;;;;;;;;5029864;28;20204;-69
2021/12/26 06:00:19;;;;;;;0.47;0.47;;;;;;;;;;5024679;28;20245;-68
2021/12/26 06:02:49;;;;;;;0.40;0.40;;;;;;;;;;5006646;28;20249;-68
2021/12/26 06:05:15;;;;;;;0.50;0.50;;;;;;;;;;5011484;28;20209;-68
2021/12/26 06:07:44;;;;;;;1.43;1.43;;;;;;;;;;5017763;28;20233;-68
2021/12/26 06:10:10;;;;;;;0.50;0.50;;;;;;;;;;5023800;28;20441;-68
2021/12/26 06:12:37;;;;;;;0.50;0.50;;;;;;;;;;5023781;28;20227;-69
2021/12/26 06:15:04;;;;;;;0.50;0.50;;;;;;;;;;5023442;28;20213;-69
2021/12/26 06:17:30;;;;;;;0.50;0.50;;;;;;;;;;5023699;28;20201;-68
2021/12/26 06:19:58;;;;;;;0.50;0.50;;;;;;;;;;5023722;28;20209;-69
2021/12/26 06:22:24;;;;;;;0.50;0.50;;;;;;;;;;5023587;28;20209;-68
2021/12/26 06:24:50;;;;;;;0.50;0.50;;;;;;;;;;5023805;28;20216;-68
2021/12/26 06:27:16;;;;;;;0.50;0.50;;;;;;;;;;5023489;28;20212;-68
2021/12/26 06:29:42;;;;;;;0.50;0.50;;;;;;;;;;5023296;28;20205;-69
2021/12/26 06:32:09;;;;;;;0.40;0.40;;;;;;;;;;5023516;28;20251;-69
2021/12/26 06:34:35;;;;;;;0.43;0.43;;;;;;;;;;5008480;28;20466;-69
2021/12/26 06:37:03;;;;;;;0.40;0.40;;;;;;;;;;5003775;28;20210;-69
2021/12/26 06:39:29;;;;;;;0.60;0.60;;;;;;;;;;5003797;28;20276;-68
2021/12/26 06:41:55;;;;;;;0.40;0.40;;;;;;;;;;5003401;28;20217;-67
2021/12/26 06:44:22;;;;;;;0.40;0.40;;;;;;;;;;5003670;28;20253;-68
2021/12/26 06:46:48;;;;;;;0.40;0.40;;;;;;;;;;5003705;28;20213;-68
2021/12/26 06:49:15;;;;;;;0.40;0.40;;;;;;;;;;5003217;28;20257;-67
2021/12/26 06:51:42;;;;;;;0.50;0.50;;;;;;;;;;5002187;28;20273;-68
2021/12/26 06:54:09;;;;;;;0.40;0.40;;;;;;;;;;5003432;28;20264;-69
2021/12/26 06:56:35;;;;;;;0.40;0.40;;;;;;;;;;5003404;28;20214;-68
2021/12/26 06:59:02;;;;;;;0.50;0.50;;;;;;;;;;5003551;28;20202;-68
2021/12/26 07:01:28;;;;;;;0.43;0.43;;;;;;;;;;5003203;28;20205;-67
2021/12/26 07:03:55;;;;;;;0.40;0.40;;;;;;;;;;5003547;28;20205;-69
2021/12/26 07:06:21;;;;;;;0.40;0.40;;;;;;;;;;5003317;28;20506;-69
2021/12/26 07:08:47;;;;;;;0.50;0.50;;;;;;;;;;5002976;28;20225;-69
2021/12/26 07:11:16;;;;;;;0.40;0.40;;;;;;;;;;5003564;28;20509;-68
2021/12/26 07:13:42;;;;;;;0.40;0.40;;;;;;;;;;5003381;28;20206;-68
2021/12/26 07:16:08;;;;;;;0.50;0.50;;;;;;;;;;5003320;28;20224;-69
2021/12/26 07:18:34;;;;;;;0.40;0.40;;;;;;;;;;5003410;28;20253;-69
2021/12/26 07:21:01;;;;;;;0.50;0.50;;;;;;;;;;5003334;28;20206;-68
2021/12/26 07:23:27;;;;;;;0.40;0.40;;;;;;;;;;5003000;28;20256;-68
2021/12/26 07:25:54;;;;;;;0.50;0.50;;;;;;;;;;5002991;28;20206;-69
2021/12/26 07:28:21;;;;;;;0.50;0.50;;;;;;;;;;5003191;28;20222;-69
2021/12/26 07:30:49;;;;;;;0.40;0.40;;;;;;;;;;5002896;28;20218;-68
2021/12/26 07:33:16;;;;;;;0.50;0.50;;;;;;;;;;5003074;28;20509;-68
2021/12/26 07:35:42;;;;;;;0.50;0.50;;;;;;;;;;5002915;28;20285;-67
2021/12/26 07:38:08;;;;;;;0.40;0.40;;;;;;;;;;5003088;28;20202;-69
2021/12/26 07:40:34;;;;;;;0.40;0.40;;;;;;;;;;5002858;28;20264;-67
2021/12/26 07:43:01;;;;;;;0.50;0.50;;;;;;;;;;5002843;28;20229;-68
2021/12/26 07:45:28;;;;;;;0.50;0.50;;;;;;;;;;5002948;28;20206;-69
2021/12/26 07:47:55;;;;;;;0.50;0.50;;;;;;;;;;5002832;28;20545;-68
2021/12/26 07:50:21;;;;;;;0.50;0.50;;;;;;;;;;5002892;28;20557;-68
2021/12/26 07:52:48;;;;;;;0.50;0.50;;;;;;;;;;5002844;28;20206;-67
2021/12/26 07:55:15;;;;;;;0.40;0.40;;;;;;;;;;5002639;28;20210;-69
2021/12/26 07:57:44;;;;;;;0.40;0.40;;;;;;;;;;5002550;28;20210;-68
2021/12/26 08:00:11;;;;;;;0.47;0.47;;;;;;;;;;5002984;28;20206;-69
2021/12/26 08:02:38;;;;;;;0.40;0.40;;;;;;;;;;5002853;28;20199;-69
2021/12/26 08:05:05;;;;;;;0.40;0.40;;;;;;;;;;5039983;28;20493;-68
2021/12/26 08:07:32;;;;;;;0.40;0.40;;;;;;;;;;5045821;28;20206;-68
2021/12/26 08:09:59;;;;;;;0.40;0.40;;;;;;;;;;5046550;28;20205;-69
2021/12/26 08:12:25;;;;;;;0.50;0.50;;;;;;;;;;5043822;28;20369;-69
2021/12/26 08:14:51;;;;;;;0.40;0.40;;;;;;;;;;5026000;28;20640;-69
2021/12/26 08:17:17;;;;;;;0.40;0.40;;;;;;;;;;5025859;28;20205;-68
2021/12/26 08:19:45;;;;;;;0.40;0.40;;;;;;;;;;5025556;28;20249;-69
2021/12/26 08:22:11;;;;;;;0.40;0.40;;;;;;;;;;5025942;28;20251;-69
2021/12/26 08:24:38;;;;;;;0.40;0.40;;;;;;;;;;5025829;28;20205;-68
2021/12/26 08:27:04;;;;;;;0.40;0.40;;;;;;;;;;5025400;28;20205;-69
2021/12/26 08:29:30;;;;;;;0.40;0.40;;;;;;;;;;5025383;28;20352;-69
2021/12/26 08:31:59;;;;;;;0.40;0.40;;;;;;;;;;5025670;28;20244;-67
2021/12/26 08:34:26;;;;;;;0.40;0.40;;;;;;;;;;5025760;28;20236;-68
2021/12/26 08:37:00;;;;;;;0.40;0.40;;;;;;;;;;5025227;28;20266;-68
2021/12/26 08:39:26;;;;;;;0.40;0.40;;;;;;;;;;5025491;28;20220;-68
2021/12/26 08:41:53;;;;;;;0.40;0.40;;;;;;;;;;5025582;28;20271;-68
2021/12/26 08:44:19;;;;;;;0.40;0.40;;;;;;;;;;5025367;28;20213;-69
2021/12/26 08:46:46;;;;;;;0.40;0.40;;;;;;;;;;5025164;28;20228;-69
2021/12/26 08:49:12;;;;;;;0.40;0.40;;;;;;;;;;5025089;28;20232;-68
2021/12/26 08:51:39;;;;;;;0.40;0.40;;;;;;;;;;5024995;28;20233;-69
2021/12/26 08:54:06;;;;;;;0.40;0.40;;;;;;;;;;5024840;28;20306;-68
2021/12/26 08:56:33;;;;;;;0.40;0.40;;;;;;;;;;5024991;28;20207;-68
2021/12/26 08:58:59;;;;;;;0.40;0.40;;;;;;;;;;5024844;28;20205;-68
2021/12/26 09:01:25;;;;;;;0.40;0.40;;;;;;;;;;5025064;28;20247;-68
2021/12/26 09:03:52;;;;;;;0.40;0.40;;;;;;;;;;5024989;28;20213;-68
2021/12/26 09:06:18;;;;;;;0.40;0.40;;;;;;;;;;5024692;28;20210;-68
2021/12/26 09:08:44;;;;;;;0.40;0.40;;;;;;;;;;5025023;28;20225;-68
2021/12/26 09:11:12;;;;;;;0.40;0.40;;;;;;;;;;5024591;28;20207;-69
2021/12/26 09:13:38;;;;;;;0.40;0.40;;;;;;;;;;5024691;28;20203;-68
2021/12/26 09:16:05;;;;;;;0.30;0.30;;;;;;;;;;5023999;28;20241;-68
2021/12/26 09:18:31;;;;;;;2.63;2.50;;;;;;;;;;5024753;28;20507;-69
2021/12/26 09:20:57;;;;;;;0.30;0.30;;;;;;;;;;5024440;28;20213;-68
2021/12/26 09:23:23;;;;;;;0.47;0.47;;;;;;;;;;5024367;28;20205;-68
2021/12/26 09:25:49;;;;;;;0.40;0.40;;;;;;;;;;5024149;28;20224;-68
2021/12/26 09:28:17;;;;;;;0.30;0.30;;;;;;;;;;5024566;28;20228;-68
2021/12/26 09:30:43;;;;;;;0.30;0.30;;;;;;;;;;5024520;28;20205;-68
2021/12/26 09:33:09;;;;;;;0.30;0.30;;;;;;;;;;5024213;28;20259;-69
2021/12/26 09:35:36;;;;;;;0.30;0.30;;;;;;;;;;5024186;28;20205;-68
2021/12/26 09:38:02;;;;;;;0.30;0.30;;;;;;;;;;5024218;28;20197;-69
2021/12/26 09:40:29;;;;;;;0.30;0.30;;;;;;;;;;5024450;28;20236;-68
2021/12/26 09:42:55;;;;;;;0.30;0.30;;;;;;;;;;5024314;28;20501;-67
2021/12/26 09:45:22;;;;;;;0.30;0.30;;;;;;;;;;5024145;28;20564;-69
2021/12/26 09:47:50;;;;;;;0.30;0.30;;;;;;;;;;5018923;28;20205;-68
2021/12/26 09:50:18;;;;;;;0.30;0.30;;;;;;;;;;5014796;28;20260;-69
2021/12/26 09:52:45;;;;;;;0.50;0.50;;;;;;;;;;5023911;28;20277;-69
2021/12/26 09:55:12;;;;;;;0.30;0.30;;;;;;;;;;5024221;28;20230;-68
2021/12/26 09:57:39;;;;;;;0.20;0.20;;;;;;;;;;5023853;28;20341;-67
2021/12/26 10:00:16;;;;;;;0.40;0.40;;;;;;;;;;5023734;28;20201;-68
2021/12/26 10:02:44;;;;;;;0.30;0.30;;;;;;;;;;5024172;28;20540;-70
2021/12/26 10:05:10;;;;;;;0.30;0.30;;;;;;;;;;5023765;28;20243;-68
2021/12/26 10:07:36;;;;;;;0.30;0.30;;;;;;;;;;5023735;28;20197;-68
2021/12/26 10:10:06;;;;;;;0.20;0.20;;;;;;;;;;5023787;28;20221;-67
2021/12/26 10:12:39;;;;;;;0.20;0.20;;;;;;;;;;5023970;28;20205;-68
2021/12/26 10:15:05;;;;;;;0.57;0.57;;;;;;;;;;5024255;28;20206;-69
2021/12/26 10:17:32;;;;;;;0.20;0.20;;;;;;;;;;5023506;28;20262;-68
2021/12/26 10:20:04;;;;;;;0.20;0.20;;;;;;;;;;5023381;28;20203;-68
2021/12/26 10:22:30;;;;;;;0.20;0.20;;;;;;;;;;5023651;28;20250;-69
2021/12/26 10:24:57;;;;;;;0.20;0.20;;;;;;;;;;5023637;28;20215;-69
2021/12/26 10:27:26;;;;;;;0.23;0.23;;;;;;;;;;5023174;28;20250;-69
2021/12/26 10:29:53;;;;;;;0.17;0.17;;;;;;;;;;5023051;28;20224;-68
2021/12/26 10:32:21;;;;;;;0.20;0.20;;;;;;;;;;5023140;28;20205;-68
2021/12/26 10:34:48;;;;;;;0.30;0.30;;;;;;;;;;5023446;28;20303;-68
2021/12/26 10:37:17;;;;;;;0.10;0.10;;;;;;;;;;5023385;28;20499;-68
2021/12/26 10:39:45;;;;;;;0.20;0.20;;;;;;;;;;5023393;28;20201;-67
2021/12/26 10:42:16;;;;;;;0.20;0.20;;;;;;;;;;5022964;28;20211;-70
2021/12/26 10:44:43;;;;;;;3.30;3.20;;;;;;;;;;5023371;28;20462;-68
2021/12/26 10:47:11;;;;;;;0.30;0.30;;;;;;;;;;5023336;28;20205;-68
2021/12/26 10:49:42;;;;;;;0.23;0.23;;;;;;;;;;5023112;28;20229;-68
2021/12/26 10:52:21;;;;;;;0.20;0.20;;;;;;;;;;5022942;28;20270;-69
2021/12/26 10:54:56;;;;;;;0.20;0.20;;;;;;;;;;5022948;28;20217;-68
2021/12/26 10:57:23;;;;;;;0.20;0.20;;;;;;;;;;5023113;28;20207;-69
2021/12/26 10:59:59;;;;;;;0.30;0.30;;;;;;;;;;5020070;28;20209;-68
2021/12/26 11:02:27;;;;;;;0.20;0.20;;;;;;;;;;5029063;28;20517;-69
2021/12/26 11:05:03;;;;;;;0.30;0.30;;;;;;;;;;5042475;28;20218;-69
2021/12/26 11:07:31;;;;;;;0.20;0.20;;;;;;;;;;5043075;28;20201;-69
2021/12/26 11:10:01;;;;;;;0.30;0.30;;;;;;;;;;5042727;28;20230;-70
2021/12/26 11:12:38;;;;;;;0.10;0.10;;;;;;;;;;5042785;28;20207;-68
2021/12/26 11:15:05;;;;;;;0.20;0.20;;;;;;;;;;5042825;28;20221;-70
2021/12/26 11:17:32;;;;;;;0.20;0.20;;;;;;;;;;5042558;28;20244;-70
2021/12/26 11:19:59;;;;;;;0.20;0.20;;;;;;;;;;5042348;28;20205;-71
2021/12/26 11:22:26;;;;;;;0.20;0.20;;;;;;;;;;5042685;28;20243;-70
2021/12/26 11:24:54;;;;;;;0.20;0.20;;;;;;;;;;5042210;28;20234;-72
2021/12/26 11:27:20;;;;;;;0.20;0.20;;;;;;;;;;5041693;28;20210;-67
2021/12/26 11:29:48;;;;;;;0.83;0.83;;;;;;;;;;5042375;28;20460;-72
2021/12/26 11:32:14;;;;;;;0.20;0.20;;;;;;;;;;5027589;28;20277;-70
2021/12/26 11:34:41;;;;;;;0.20;0.20;;;;;;;;;;5022502;28;20266;-70
2021/12/26 11:37:08;;;;;;;0.20;0.20;;;;;;;;;;5022886;28;20398;-67
2021/12/26 11:39:37;;;;;;;0.20;0.20;;;;;;;;;;5025878;28;20264;-66
2021/12/26 11:42:29;;;;;;;0.20;0.20;;;;;;;;;;5036361;28;20209;-68
2021/12/26 11:45:06;;;;;;;0.20;0.20;;;;;;;;;;5006590;28;20518;-67
2021/12/26 11:47:42;;;;;;;0.20;0.20;;;;;;;;;;5006889;28;20221;-71
2021/12/26 11:50:15;;;;;;;0.20;0.20;;;;;;;;;;5006242;28;20230;-71
2021/12/26 11:52:50;;;;;;;0.20;0.20;;;;;;;;;;5006744;28;20505;-68
2021/12/26 11:55:24;;;;;;;0.20;0.20;;;;;;;;;;5006722;28;20360;-69
2021/12/26 11:58:06;;;;;;;0.20;0.20;;;;;;;;;;5006260;28;20241;-70
2021/12/26 12:00:35;;;;;;;0.30;0.30;;;;;;;;;;5035147;28;20197;-68
2021/12/26 12:03:02;;;;;;;0.20;0.20;;;;;;;;;;5031905;28;20216;-71
2021/12/26 12:05:30;;;;;;;0.20;0.20;;;;;;;;;;5017274;28;20205;-66
2021/12/26 12:07:58;;;;;;;0.20;0.20;;;;;;;;;;5018829;28;20212;-70
2021/12/26 12:10:34;;;;;;;0.20;0.20;;;;;;;;;;5011413;28;20448;-71
2021/12/26 12:13:02;;;;;;;0.30;0.30;;;;;;;;;;5021611;28;20213;-68
2021/12/26 12:15:40;;;;;;;0.20;0.20;;;;;;;;;;5041042;28;20438;-65
2021/12/26 12:18:07;;;;;;;0.30;0.30;;;;;;;;;;5045721;28;20221;-68
2021/12/26 12:20:33;;;;;;;0.20;0.20;;;;;;;;;;5034832;28;20198;-70
2021/12/26 12:23:17;;;;;;;0.30;0.30;;;;;;;;;;5040374;28;20295;-71
2021/12/26 12:25:49;;;;;;;0.30;0.30;;;;;;;;;;5013875;28;20272;-69
2021/12/26 12:28:17;;;;;;;0.30;0.30;;;;;;;;;;5019320;28;20500;-69
2021/12/26 12:30:45;;;;;;;0.23;0.23;;;;;;;;;;5025183;28;20226;-70
2021/12/26 12:33:12;;;;;;;0.30;0.30;;;;;;;;;;5025342;28;20205;-70
2021/12/26 12:35:47;;;;;;;0.27;0.27;;;;;;;;;;5025283;28;20260;-70
2021/12/26 12:38:22;;;;;;;0.20;0.20;;;;;;;;;;5045235;28;20532;-71
2021/12/26 12:40:48;;;;;;;0.30;0.30;;;;;;;;;;5045038;28;20279;-69
2021/12/26 12:43:16;;;;;;;0.30;0.30;;;;;;;;;;5045245;28;20266;-72
2021/12/26 12:46:01;;;;;;;0.30;0.30;;;;;;;;;;5045214;28;20512;-71
2021/12/26 12:48:28;;;;;;;0.30;0.30;;;;;;;;;;5045156;28;20235;-69
2021/12/26 12:50:55;;;;;;;0.30;0.30;;;;;;;;;;5044778;28;20232;-70
2021/12/26 12:53:39;;;;;;;0.30;0.30;;;;;;;;;;5045033;28;20204;-70
2021/12/26 12:56:06;;;;;;;0.30;0.30;;;;;;;;;;5044824;28;20203;-69
2021/12/26 12:58:36;;;;;;;0.33;0.33;;;;;;;;;;5044781;28;20196;-70
2021/12/26 13:01:05;;;;;;;0.30;0.30;;;;;;;;;;5044584;28;20243;-69
2021/12/26 13:03:34;;;;;;;0.30;0.30;;;;;;;;;;5044568;28;20211;-69
2021/12/26 13:06:06;;;;;;;0.30;0.30;;;;;;;;;;5044918;28;20398;-70
2021/12/26 13:08:33;;;;;;;0.30;0.30;;;;;;;;;;5044723;28;20260;-70
2021/12/26 13:10:59;;;;;;;0.30;0.30;;;;;;;;;;5037897;28;20279;-69
2021/12/26 13:13:26;;;;;;;0.30;0.30;;;;;;;;;;5024547;28;20220;-70
2021/12/26 13:15:54;;;;;;;0.30;0.30;;;;;;;;;;5024797;28;20205;-70
2021/12/26 13:18:22;;;;;;;0.30;0.30;;;;;;;;;;5024640;28;20227;-70
2021/12/26 13:20:49;;;;;;;0.30;0.30;;;;;;;;;;5024465;28;20398;-69
2021/12/26 13:23:16;;;;;;;0.30;0.30;;;;;;;;;;5024602;28;20205;-69
2021/12/26 13:25:45;;;;;;;0.30;0.30;;;;;;;;;;5024735;28;20208;-69
2021/12/26 13:28:18;;;;;;;0.30;0.30;;;;;;;;;;5024670;28;20228;-70
2021/12/26 13:30:45;;;;;;;0.30;0.30;;;;;;;;;;5024466;28;20279;-70
2021/12/26 13:33:14;;;;;;;0.30;0.30;;;;;;;;;;5024242;28;20327;-70
2021/12/26 13:35:42;;;;;;;0.30;0.30;;;;;;;;;;5024431;28;20205;-69
2021/12/26 13:38:08;;;;;;;0.30;0.30;;;;;;;;;;5024408;28;20211;-69
2021/12/26 13:40:36;;;;;;;0.30;0.30;;;;;;;;;;5024349;28;20247;-69
2021/12/26 13:43:02;;;;;;;0.30;0.30;;;;;;;;;;5024059;28;20252;-70
2021/12/26 13:45:29;;;;;;;0.30;0.30;;;;;;;;;;5024287;28;20516;-70
2021/12/26 13:47:55;;;;;;;0.30;0.30;;;;;;;;;;5024272;28;20259;-70
2021/12/26 13:50:22;;;;;;;0.30;0.30;;;;;;;;;;5015391;28;20276;-70
2021/12/26 13:52:58;;;;;;;0.30;0.30;;;;;;;;;;5012508;28;20213;-70
2021/12/26 13:55:24;;;;;;;0.30;0.30;;;;;;;;;;5020253;28;20237;-70
2021/12/26 13:57:56;;;;;;;0.33;0.33;;;;;;;;;;5023754;28;20259;-69
2021/12/26 14:00:22;;;;;;;0.30;0.30;;;;;;;;;;5023399;28;20193;-69
2021/12/26 14:02:48;;;;;;;0.30;0.30;;;;;;;;;;5023875;28;20205;-70
2021/12/26 14:05:18;;;;;;;0.30;0.30;;;;;;;;;;5018653;28;20269;-69
2021/12/26 14:07:49;;;;;;;0.30;0.30;;;;;;;;;;5018826;28;20202;-69
2021/12/26 14:10:17;;;;;;;0.30;0.30;;;;;;;;;;5004276;28;20528;-68
2021/12/26 14:12:46;;;;;;;0.30;0.30;;;;;;;;;;5004271;28;20401;-69
2021/12/26 14:15:31;;;;;;;0.30;0.30;;;;;;;;;;5007270;28;20399;-69
2021/12/26 14:18:00;;;;;;;0.27;0.27;;;;;;;;;;5010714;28;20209;-68
2021/12/26 14:20:26;;;;;;;0.30;0.30;;;;;;;;;;5016851;28;20206;-71
2021/12/26 14:22:53;;;;;;;0.30;0.30;;;;;;;;;;5014618;28;20206;-69
2021/12/26 14:25:21;;;;;;;0.30;0.30;;;;;;;;;;5007455;28;20202;-68
2021/12/26 14:27:47;;;;;;;0.30;0.30;;;;;;;;;;5018279;28;20208;-66
2021/12/26 14:30:13;;;;;;;0.30;0.30;;;;;;;;;;5016004;28;20271;-70
2021/12/26 14:32:40;;;;;;;0.30;0.30;;;;;;;;;;5014375;28;20201;-70
2021/12/26 14:35:12;;;;;;;0.33;0.33;;;;;;;;;;5020668;28;20276;-69
2021/12/26 14:37:38;;;;;;;0.30;0.30;;;;;;;;;;5007469;28;20205;-68
2021/12/26 14:40:08;;;;;;;0.30;0.30;;;;;;;;;;5023301;28;20209;-67
2021/12/26 14:42:41;;;;;;;0.30;0.30;;;;;;;;;;5007609;28;20194;-69
2021/12/26 14:45:14;;;;;;;0.27;0.27;;;;;;;;;;5004006;28;20197;-68
2021/12/26 14:47:41;;;;;;;0.30;0.30;;;;;;;;;;5003680;28;20198;-69